Time;durP1;ratioP1;P1;durP2;ratioP2;P2;SDS_P1;SDS_P2;PMS_P1;PMS_P2;Temp;Humidity;BMP_temperature;BMP_pressure;BME280_temperature;BME280_humidity;BME280_pressure;Samples;Min_cycle;Max_cycle;Signal;HPM_P1;HPM_P2
2021/11/11 00:01:40;;;;;;;43.08;20.85;;;;;;;2.07;99.51;102463.47;5023997;28;20479;-76
2021/11/11 00:04:09;;;;;;;51.25;23.63;;;;;;;2.15;99.98;102461.88;5025531;28;20029;-76
2021/11/11 00:06:35;;;;;;;45.05;20.75;;;;;;;2.15;99.53;102459.22;5026669;28;20025;-76
2021/11/11 00:09:03;;;;;;;57.22;22.98;;;;;;;2.06;98.95;102461.81;5021292;28;20025;-76
2021/11/11 00:11:29;;;;;;;40.42;19.23;;;;;;;2.06;99.08;102477.66;5056652;22;20302;-53
2021/11/11 00:13:54;;;;;;;52.55;22.40;;;;;;;1.86;99.26;102476.13;5017096;28;20160;-53
2021/11/11 00:16:20;;;;;;;42.75;19.65;;;;;;;1.87;99.01;102480.44;5014247;28;20124;-53
2021/11/11 00:18:45;;;;;;;41.67;19.45;;;;;;;1.86;98.98;102477.94;5016479;28;20029;-56
2021/11/11 00:21:11;;;;;;;34.13;17.50;;;;;;;1.80;99.30;102476.75;5017361;28;20025;-54
2021/11/11 00:23:37;;;;;;;50.78;22.88;;;;;;;1.83;99.95;102468.50;5015064;28;20025;-53
2021/11/11 00:26:03;;;;;;;52.25;23.80;;;;;;;1.76;100.00;102462.13;5053930;22;20063;-77
2021/11/11 00:28:29;;;;;;;61.85;25.42;;;;;;;1.81;99.50;102466.00;5066111;28;20029;-76
2021/11/11 00:30:54;;;;;;;59.42;25.73;;;;;;;1.80;99.13;102460.88;5046048;28;20027;-76
2021/11/11 00:33:20;;;;;;;60.00;25.60;;;;;;;1.68;99.18;102447.03;5044303;28;20495;-77
2021/11/11 00:35:45;;;;;;;53.63;23.42;;;;;;;1.57;100.00;102449.88;5044044;28;20388;-77
2021/11/11 00:38:11;;;;;;;65.03;27.38;;;;;;;1.70;100.00;102452.16;5041001;28;20036;-77
2021/11/11 00:40:36;;;;;;;52.97;24.55;;;;;;;1.72;100.00;102455.50;5046828;28;20021;-77
2021/11/11 00:43:03;;;;;;;54.35;25.02;;;;;;;1.69;99.90;102461.06;5043084;28;20043;-76
2021/11/11 00:45:29;;;;;;;49.40;23.38;;;;;;;1.67;99.83;102468.31;5041917;28;20035;-77
2021/11/11 00:47:55;;;;;;;68.38;27.67;;;;;;;1.51;99.84;102458.38;5037687;28;20029;-76
2021/11/11 00:50:23;;;;;;;60.47;26.45;;;;;;;1.49;100.00;102461.19;5045082;28;20036;-76
2021/11/11 00:52:49;;;;;;;58.28;26.50;;;;;;;1.48;99.57;102454.22;5040130;28;20097;-76
2021/11/11 00:55:15;;;;;;;63.17;24.40;;;;;;;1.48;99.25;102456.88;5041133;28;20032;-76
2021/11/11 00:57:41;;;;;;;65.78;26.92;;;;;;;1.49;99.92;102449.78;5054039;28;20031;-76
2021/11/11 01:00:10;;;;;;;63.30;25.98;;;;;;;1.54;99.34;102446.69;5045256;28;20382;-76
2021/11/11 01:02:37;;;;;;;55.88;23.67;;;;;;;1.50;98.97;102447.00;5043966;28;20552;-76
2021/11/11 01:05:04;;;;;;;48.78;22.50;;;;;;;1.54;99.19;102436.13;5051633;28;20067;-76
2021/11/11 01:07:29;;;;;;;44.65;21.60;;;;;;;1.59;99.07;102436.50;5040836;28;20099;-76
2021/11/11 01:09:55;;;;;;;46.30;22.75;;;;;;;1.61;98.81;102442.47;5046304;28;20617;-76
2021/11/11 01:12:20;;;;;;;52.33;22.83;;;;;;;1.63;98.88;102444.00;5046212;28;20055;-76
2021/11/11 01:14:46;;;;;;;57.08;24.92;;;;;;;1.49;99.50;102433.94;5052725;28;20075;-76
2021/11/11 01:17:11;;;;;;;58.40;24.02;;;;;;;1.51;99.21;102437.25;5050336;28;20960;-76
2021/11/11 01:19:37;;;;;;;70.97;27.23;;;;;;;1.49;98.73;102449.78;5049482;28;20029;-76
2021/11/11 01:22:04;;;;;;;64.80;26.55;;;;;;;1.36;99.83;102438.72;5050140;28;20109;-76
2021/11/11 01:24:29;;;;;;;59.10;25.90;;;;;;;1.29;99.47;102446.41;5038356;28;20025;-76
2021/11/11 01:26:55;;;;;;;55.67;24.70;;;;;;;1.33;100.00;102444.28;5038977;28;20387;-76
2021/11/11 01:29:20;;;;;;;65.40;26.02;;;;;;;1.40;100.00;102443.56;5046214;28;20468;-76
2021/11/11 01:31:46;;;;;;;73.93;29.13;;;;;;;1.38;99.26;102445.50;5041380;28;20027;-76
2021/11/11 01:34:11;;;;;;;53.83;23.05;;;;;;;1.34;99.08;102438.03;5039561;28;20112;-76
2021/11/11 01:36:37;;;;;;;45.75;21.58;;;;;;;1.35;98.97;102419.41;5055671;28;20052;-77
2021/11/11 01:39:05;;;;;;;75.45;24.27;;;;;;;1.39;99.69;102423.41;5055885;28;20049;-76
2021/11/11 01:41:32;;;;;;;79.00;24.92;;;;;;;1.45;99.31;102420.19;5040430;28;20057;-76
2021/11/11 01:43:57;;;;;;;60.90;21.70;;;;;;;1.48;99.33;102422.53;5037147;28;20025;-76
2021/11/11 01:46:23;;;;;;;91.88;24.65;;;;;;;1.39;98.58;102418.13;5058425;28;21210;-76
2021/11/11 01:48:49;;;;;;;120.03;31.85;;;;;;;1.27;98.55;102429.88;5045538;28;20025;-76
2021/11/11 01:51:16;;;;;;;78.55;25.02;;;;;;;1.22;98.63;102421.53;5043867;28;20040;-76
2021/11/11 01:53:41;;;;;;;122.68;32.03;;;;;;;1.17;98.49;102424.63;5042829;28;20103;-76
2021/11/11 01:56:07;;;;;;;52.70;21.92;;;;;;;1.21;98.61;102418.06;5045990;28;20601;-76
2021/11/11 01:58:32;;;;;;;84.60;25.10;;;;;;;1.16;99.12;102417.69;5038666;28;20127;-76
2021/11/11 02:00:59;;;;;;;54.08;22.02;;;;;;;1.21;99.17;102417.22;5047533;28;20028;-76
2021/11/11 02:03:25;;;;;;;52.78;21.83;;;;;;;1.21;99.33;102404.03;5039292;28;20119;-76
2021/11/11 02:05:51;;;;;;;63.38;25.25;;;;;;;1.08;99.34;102411.47;5041401;28;20104;-76
2021/11/11 02:08:18;;;;;;;70.82;26.70;;;;;;;1.00;99.70;102412.19;5048366;28;20029;-76
2021/11/11 02:10:44;;;;;;;55.25;23.40;;;;;;;0.95;99.45;102410.97;5042672;28;20108;-76
2021/11/11 02:13:10;;;;;;;55.20;25.05;;;;;;;0.96;100.00;102405.53;5048236;28;20553;-76
2021/11/11 02:15:36;;;;;;;57.85;24.73;;;;;;;0.98;100.00;102406.22;5062049;28;20123;-76
2021/11/11 02:18:04;;;;;;;51.88;21.67;;;;;;;1.07;100.00;102396.59;5043512;28;20059;-76
2021/11/11 02:20:32;;;;;;;63.17;25.15;;;;;;;1.11;100.00;102401.47;5051546;28;20032;-76
2021/11/11 02:23:00;;;;;;;100.32;30.63;;;;;;;1.10;100.00;102399.78;5059701;28;20021;-76
2021/11/11 02:25:28;;;;;;;57.15;23.90;;;;;;;1.13;100.00;102396.84;5043025;28;20126;-76
2021/11/11 02:28:00;;;;;;;40.97;18.70;;;;;;;1.15;100.00;102389.63;5046090;28;20048;-76
2021/11/11 02:30:29;;;;;;;58.75;22.48;;;;;;;1.13;99.89;102388.94;5046009;28;20111;-76
2021/11/11 02:32:54;;;;;;;69.90;27.05;;;;;;;1.16;99.51;102387.81;5048496;28;20107;-76
2021/11/11 02:35:21;;;;;;;71.63;26.77;;;;;;;1.10;99.38;102391.03;5053137;28;20509;-76
2021/11/11 02:37:47;;;;;;;68.88;26.10;;;;;;;1.09;99.42;102392.84;5048286;28;20025;-76
2021/11/11 02:40:22;;;;;;;83.53;29.00;;;;;;;1.00;100.00;102398.16;5058032;28;20025;-76
2021/11/11 02:42:48;;;;;;;54.17;23.45;;;;;;;1.04;100.00;102402.16;5048128;28;20585;-76
2021/11/11 02:45:19;;;;;;;80.90;28.77;;;;;;;1.05;100.00;102403.81;5034104;28;20055;-76
2021/11/11 02:47:45;;;;;;;60.78;25.50;;;;;;;1.08;100.00;102406.19;5040685;28;20096;-76
2021/11/11 02:50:12;;;;;;;52.00;21.60;;;;;;;1.07;99.88;102396.59;5049351;28;20017;-76
2021/11/11 02:52:38;;;;;;;106.60;31.08;;;;;;;1.09;99.79;102390.22;5051450;28;20029;-76
2021/11/11 02:55:06;;;;;;;215.02;39.97;;;;;;;1.12;99.17;102383.81;5047734;28;20033;-76
2021/11/11 02:57:34;;;;;;;250.30;40.70;;;;;;;1.01;99.67;102383.97;5047908;28;20560;-76
2021/11/11 03:00:13;;;;;;;220.50;38.42;;;;;;;0.97;100.00;102396.63;5047446;28;20684;-76
2021/11/11 03:02:42;;;;;;;341.25;50.92;;;;;;;0.96;100.00;102392.34;5045318;28;20083;-76
2021/11/11 03:05:12;;;;;;;66.53;24.00;;;;;;;0.95;99.78;102393.31;5049492;28;20147;-76
2021/11/11 03:07:38;;;;;;;176.65;38.97;;;;;;;0.93;99.58;102391.81;5043719;28;20020;-76
2021/11/11 03:10:10;;;;;;;79.32;25.52;;;;;;;0.85;99.05;102390.69;5046347;28;20090;-76
2021/11/11 03:12:36;;;;;;;193.75;39.97;;;;;;;0.78;98.80;102386.16;5051672;28;20478;-76
2021/11/11 03:15:03;;;;;;;290.77;44.90;;;;;;;0.72;98.60;102386.72;5051050;28;20043;-76
2021/11/11 03:17:29;;;;;;;116.57;29.00;;;;;;;0.64;99.11;102384.78;5049601;28;20119;-76
2021/11/11 03:19:54;;;;;;;145.65;32.67;;;;;;;0.56;99.72;102382.06;5052286;28;20128;-76
2021/11/11 03:22:20;;;;;;;284.83;45.72;;;;;;;0.56;100.00;102387.34;5050740;28;20119;-76
2021/11/11 03:24:49;;;;;;;105.28;29.05;;;;;;;0.63;100.00;102372.59;5038414;28;20029;-76
2021/11/11 03:27:15;;;;;;;100.78;29.63;;;;;;;0.72;100.00;102366.47;5048895;28;20152;-76
2021/11/11 03:29:40;;;;;;;50.78;22.02;;;;;;;0.76;100.00;102367.84;5047185;28;20082;-76
2021/11/11 03:32:07;;;;;;;51.13;21.08;;;;;;;0.79;100.00;102377.25;5050085;28;20037;-76
2021/11/11 03:34:34;;;;;;;116.63;31.98;;;;;;;0.77;99.77;102373.94;5066811;28;20028;-76
2021/11/11 03:37:00;;;;;;;62.28;22.63;;;;;;;0.82;99.93;102367.25;5048318;28;20025;-76
2021/11/11 03:39:27;;;;;;;86.20;28.38;;;;;;;0.85;99.63;102366.13;5046983;28;20052;-76
2021/11/11 03:41:53;;;;;;;66.35;25.08;;;;;;;0.72;98.92;102377.00;5046542;28;20486;-76
2021/11/11 03:44:21;;;;;;;56.42;23.73;;;;;;;0.60;98.20;102389.53;5037475;28;20028;-75
2021/11/11 03:46:49;;;;;;;70.28;24.67;;;;;;;0.49;98.07;102386.22;5052397;28;20029;-76
2021/11/11 03:49:15;;;;;;;69.13;26.08;;;;;;;0.40;99.10;102389.72;5051494;28;20064;-76
2021/11/11 03:51:42;;;;;;;78.55;28.00;;;;;;;0.45;99.21;102385.66;5050143;28;20115;-76
2021/11/11 03:54:09;;;;;;;98.82;27.92;;;;;;;0.51;100.00;102385.09;5049238;28;20025;-75
2021/11/11 03:56:36;;;;;;;162.32;38.13;;;;;;;0.60;100.00;102383.44;5049170;28;20474;-76
2021/11/11 03:59:03;;;;;;;68.90;23.27;;;;;;;0.63;100.00;102377.03;5046768;28;20524;-75
2021/11/11 04:01:29;;;;;;;281.60;46.80;;;;;;;0.74;100.00;102374.22;5047148;28;20033;-76
2021/11/11 04:03:54;;;;;;;191.80;36.65;;;;;;;0.81;100.00;102372.66;5045966;28;20112;-76
2021/11/11 04:06:20;;;;;;;164.05;32.45;;;;;;;0.89;100.00;102381.50;5048779;28;20120;-76
2021/11/11 04:08:45;;;;;;;331.92;50.67;;;;;;;0.91;100.00;102376.13;5048528;28;20119;-76
2021/11/11 04:11:11;;;;;;;281.50;47.70;;;;;;;0.83;100.00;102389.19;5049282;28;20037;-76
2021/11/11 04:13:37;;;;;;;154.63;33.33;;;;;;;0.78;100.00;102389.63;5049765;28;20032;-75
2021/11/11 04:16:04;;;;;;;167.90;31.95;;;;;;;0.80;100.00;102385.03;5049423;28;20043;-75
2021/11/11 04:18:30;;;;;;;336.35;51.10;;;;;;;0.77;100.00;102384.50;5046585;28;20055;-76
2021/11/11 04:20:56;;;;;;;367.35;54.40;;;;;;;0.78;100.00;102375.59;5050836;28;20052;-76
2021/11/11 04:23:24;;;;;;;407.80;53.97;;;;;;;0.80;100.00;102369.19;5053537;28;20028;-76
2021/11/11 04:28:29;;;;;;;200.30;34.50;;;;;;;0.64;100.00;102368.13;5047482;28;20556;-76
2021/11/11 04:30:58;;;;;;;359.85;50.92;;;;;;;0.59;100.00;102374.69;5045075;28;20037;-76
2021/11/11 04:33:25;;;;;;;366.27;51.92;;;;;;;0.65;100.00;102375.91;5055581;28;20039;-76
2021/11/11 04:35:56;;;;;;;342.50;51.92;;;;;;;0.66;100.00;102376.75;5051819;28;20021;-76
2021/11/11 04:46:59;;;;;;;276.60;45.60;;;;;;;0.66;100.00;102390.75;5053308;28;20031;-76
2021/11/11 05:05:16;;;;;;;135.60;30.65;;;;;;;0.57;100.00;102389.00;5047604;28;20032;-76
2021/11/11 05:07:41;;;;;;;174.52;35.92;;;;;;;0.60;100.00;102393.97;5044429;28;20037;-76
2021/11/11 05:10:07;;;;;;;110.97;25.95;;;;;;;0.63;100.00;102391.06;5036461;28;20487;-76
2021/11/11 05:12:33;;;;;;;43.45;19.20;;;;;;;0.68;100.00;102380.88;5039042;28;20049;-76
2021/11/11 05:14:58;;;;;;;112.03;26.33;;;;;;;0.72;100.00;102382.28;5039947;28;20025;-76
2021/11/11 05:17:24;;;;;;;86.80;22.70;;;;;;;0.79;100.00;102382.53;5051372;28;20111;-76
2021/11/11 05:19:51;;;;;;;109.57;25.00;;;;;;;0.77;100.00;102382.69;5036434;28;20032;-76
2021/11/11 05:22:16;;;;;;;146.73;27.25;;;;;;;0.77;100.00;102379.22;5044686;28;20035;-76
2021/11/11 05:24:42;;;;;;;174.52;29.42;;;;;;;0.71;100.00;102380.59;5042016;28;20394;-76
2021/11/11 05:27:11;;;;;;;228.88;33.67;;;;;;;0.59;100.00;102387.88;5042098;28;21014;-75
2021/11/11 05:29:36;;;;;;;265.38;38.95;;;;;;;0.46;100.00;102394.41;5037839;28;20013;-76
2021/11/11 05:32:02;;;;;;;187.13;30.92;;;;;;;0.41;100.00;102400.13;5051428;28;20186;-76
2021/11/11 05:34:28;;;;;;;107.70;26.55;;;;;;;0.47;100.00;102388.16;5044640;28;20524;-75
2021/11/11 05:36:54;;;;;;;63.00;19.85;;;;;;;0.57;100.00;102394.28;5046042;28;20131;-76
2021/11/11 05:39:19;;;;;;;89.60;24.27;;;;;;;0.66;100.00;102392.56;5041448;28;20033;-76
2021/11/11 05:41:45;;;;;;;131.00;27.77;;;;;;;0.66;100.00;102396.03;5044062;28;20029;-76
2021/11/11 05:44:10;;;;;;;226.32;36.85;;;;;;;0.53;100.00;102393.69;5046610;28;20060;-76
2021/11/11 05:46:36;;;;;;;122.78;25.30;;;;;;;0.57;100.00;102400.38;5039964;28;20386;-76
2021/11/11 05:49:01;;;;;;;131.02;27.40;;;;;;;0.46;100.00;102397.06;5044732;28;20053;-76
2021/11/11 05:51:27;;;;;;;154.85;31.08;;;;;;;0.22;100.00;102394.88;5049135;28;20535;-76
2021/11/11 05:53:52;;;;;;;170.80;32.35;;;;;;;0.12;100.00;102400.13;5045172;28;20064;-76
2021/11/11 05:56:18;;;;;;;251.65;34.95;;;;;;;-0.07;100.00;102405.41;5043026;28;20032;-76
2021/11/11 05:58:44;;;;;;;141.60;25.95;;;;;;;0.02;100.00;102395.84;5038195;28;20033;-76
2021/11/11 06:01:10;;;;;;;161.57;29.15;;;;;;;0.08;100.00;102400.56;5047033;28;20073;-76
2021/11/11 06:03:36;;;;;;;85.43;23.50;;;;;;;0.18;100.00;102401.38;5046204;28;20021;-76
2021/11/11 06:06:02;;;;;;;71.88;22.45;;;;;;;0.25;100.00;102405.97;5045022;28;20036;-76
2021/11/11 06:08:27;;;;;;;61.05;19.42;;;;;;;0.37;100.00;102409.28;5049825;28;20028;-76
2021/11/11 06:10:53;;;;;;;34.70;18.05;;;;;;;0.43;100.00;102418.44;5051459;28;20021;-77
2021/11/11 06:13:21;;;;;;;159.30;31.48;;;;;;;0.47;100.00;102419.81;5050933;28;20495;-77
2021/11/11 06:15:46;;;;;;;117.75;25.10;;;;;;;0.47;100.00;102417.19;5050988;28;20021;-77
2021/11/11 06:18:13;;;;;;;79.25;21.77;;;;;;;0.46;100.00;102412.88;5054351;28;20079;-77
2021/11/11 06:20:46;;;;;;;63.58;18.02;;;;;;;0.52;100.00;102417.56;5057624;28;20023;-77
2021/11/11 06:23:12;;;;;;;47.03;16.92;;;;;;;0.50;100.00;102415.09;5042552;28;20402;-77
2021/11/11 06:25:40;;;;;;;67.38;20.02;;;;;;;0.52;100.00;102409.66;5054162;28;20028;-77
2021/11/11 06:28:08;;;;;;;53.42;17.75;;;;;;;0.53;100.00;102406.88;5045903;28;20121;-77
2021/11/11 06:30:34;;;;;;;138.32;24.40;;;;;;;0.56;100.00;102416.34;5051335;28;20032;-77
2021/11/11 06:33:00;;;;;;;47.35;17.55;;;;;;;0.58;100.00;102407.31;5057986;28;20025;-77
2021/11/11 06:35:28;;;;;;;57.97;17.77;;;;;;;0.53;100.00;102406.88;5049542;28;20497;-77
2021/11/11 06:37:53;;;;;;;126.88;23.33;;;;;;;0.55;100.00;102419.97;5046683;28;20091;-78
2021/11/11 06:40:19;;;;;;;64.50;17.85;;;;;;;0.59;100.00;102422.16;5044388;28;20021;-77
2021/11/11 06:42:44;;;;;;;49.05;16.63;;;;;;;0.62;100.00;102428.94;5053065;28;20024;-77
2021/11/11 06:45:11;;;;;;;88.43;22.20;;;;;;;0.63;99.71;102430.63;5046554;28;20032;-77
2021/11/11 06:47:38;;;;;;;82.05;20.65;;;;;;;0.67;99.85;102424.06;5043064;28;20059;-77
2021/11/11 06:50:04;;;;;;;95.88;21.33;;;;;;;0.72;99.58;102418.38;5043885;28;20048;-77
2021/11/11 06:52:30;;;;;;;85.38;21.45;;;;;;;0.74;99.57;102419.09;5051090;28;20056;-77
2021/11/11 06:54:55;;;;;;;75.57;19.55;;;;;;;0.78;99.17;102418.66;5044272;28;20060;-77
2021/11/11 06:57:21;;;;;;;64.63;18.17;;;;;;;0.75;98.77;102418.09;5052477;28;20056;-77
2021/11/11 06:59:47;;;;;;;113.32;23.83;;;;;;;0.72;98.79;102413.94;5032441;28;20033;-77
2021/11/11 07:02:12;;;;;;;114.13;19.95;;;;;;;0.69;98.87;102416.84;5041641;28;20021;-77
2021/11/11 07:04:38;;;;;;;124.13;23.45;;;;;;;0.75;98.99;102418.09;5040319;28;20024;-77
2021/11/11 07:07:03;;;;;;;163.52;26.05;;;;;;;0.57;98.99;102423.28;5046108;28;20033;-77
2021/11/11 07:09:29;;;;;;;64.00;17.95;;;;;;;0.47;98.69;102419.81;5040247;28;20025;-77
2021/11/11 07:11:54;;;;;;;128.63;23.45;;;;;;;0.46;98.94;102423.41;5040830;28;20033;-78
2021/11/11 07:14:20;;;;;;;123.63;22.50;;;;;;;0.36;98.91;102417.31;5035617;28;20441;-77
2021/11/11 07:16:46;;;;;;;73.47;18.90;;;;;;;0.30;99.71;102413.44;5039999;28;20037;-74
2021/11/11 07:19:12;;;;;;;109.50;20.98;;;;;;;0.21;99.99;102409.84;5035731;28;20083;-72
2021/11/11 07:21:39;;;;;;;125.40;21.25;;;;;;;0.06;100.00;102411.25;5037288;28;20035;-72
2021/11/11 07:24:04;;;;;;;114.35;22.05;;;;;;;0.18;100.00;102409.28;5039788;28;20063;-79
2021/11/11 07:26:30;;;;;;;182.10;26.73;;;;;;;0.19;100.00;102409.16;5037831;28;20032;-77
2021/11/11 07:28:56;;;;;;;180.57;24.52;;;;;;;0.07;100.00;102412.91;5050700;28;20029;-76
2021/11/11 07:31:25;;;;;;;125.13;21.27;;;;;;;-0.08;100.00;102414.28;5042965;28;20099;-72
2021/11/11 07:33:50;;;;;;;140.52;22.70;;;;;;;0.07;100.00;102423.44;5042687;28;20116;-72
2021/11/11 07:36:16;;;;;;;182.63;25.98;;;;;;;0.28;100.00;102433.84;5041176;28;20025;-70
2021/11/11 07:38:42;;;;;;;111.90;19.70;;;;;;;0.51;100.00;102439.66;5033175;28;20057;-73
2021/11/11 07:41:07;;;;;;;54.83;16.30;;;;;;;0.76;100.00;102443.50;5033942;28;20028;-71
2021/11/11 07:43:33;;;;;;;33.75;16.05;;;;;;;0.93;100.00;102436.66;5034805;28;20033;-71
2021/11/11 07:46:04;;;;;;;141.77;23.67;;;;;;;1.06;100.00;102439.81;5041768;28;20576;-70
2021/11/11 07:48:29;;;;;;;104.80;19.83;;;;;;;1.17;100.00;102437.00;5038029;28;20032;-73
2021/11/11 07:50:57;;;;;;;35.58;15.30;;;;;;;1.32;99.47;102440.00;5042716;28;20025;-75
2021/11/11 07:53:23;;;;;;;40.28;16.02;;;;;;;1.42;99.12;102438.13;5041773;28;20232;-73
2021/11/11 07:55:49;;;;;;;47.38;15.75;;;;;;;1.55;98.93;102440.44;5040383;28;20048;-69
2021/11/11 07:58:15;;;;;;;121.22;22.98;;;;;;;1.47;97.61;102446.47;5037682;28;20033;-70
2021/11/11 08:00:41;;;;;;;69.03;18.63;;;;;;;1.43;97.38;102442.41;5040017;28;20175;-76
2021/11/11 08:03:07;;;;;;;82.32;19.75;;;;;;;1.59;97.88;102441.78;5043069;28;20102;-76
2021/11/11 08:05:33;;;;;;;101.45;22.17;;;;;;;1.71;97.53;102437.97;5038549;28;20029;-76
2021/11/11 08:07:59;;;;;;;81.60;21.40;;;;;;;1.76;97.34;102433.91;5041056;28;20033;-76
2021/11/11 08:10:25;;;;;;;60.55;19.52;;;;;;;1.95;97.42;102440.03;5042085;28;21560;-76
2021/11/11 08:12:51;;;;;;;57.28;18.67;;;;;;;1.88;96.97;102436.34;5041094;28;20032;-76
2021/11/11 08:15:17;;;;;;;64.55;20.63;;;;;;;2.01;96.58;102431.53;5035768;28;20025;-76
2021/11/11 08:17:43;;;;;;;55.40;21.42;;;;;;;2.09;96.55;102431.59;5040056;28;20036;-71
2021/11/11 08:20:20;;;;;;;63.72;20.73;;;;;;;2.09;96.76;102437.69;5036902;28;21331;-75
2021/11/11 08:22:48;;;;;;;51.00;19.63;;;;;;;2.16;97.37;102437.13;5044920;28;20029;-70
2021/11/11 08:25:14;;;;;;;77.65;21.60;;;;;;;2.10;98.53;102438.53;5052788;28;20082;-76
2021/11/11 08:27:42;;;;;;;58.45;19.20;;;;;;;1.93;100.00;102437.53;5035707;28;20021;-79
2021/11/11 08:30:11;;;;;;;70.93;19.23;;;;;;;1.96;100.00;102433.75;5037817;28;20083;-70
2021/11/11 08:32:37;;;;;;;84.97;23.52;;;;;;;2.04;100.00;102434.69;5035336;28;20349;-70
2021/11/11 08:35:03;;;;;;;45.00;16.35;;;;;;;2.16;100.00;102426.53;5043763;28;20035;-76
2021/11/11 08:37:29;;;;;;;54.17;18.27;;;;;;;2.11;100.00;102430.44;5040256;28;20492;-76
2021/11/11 08:39:55;;;;;;;48.60;17.90;;;;;;;1.96;100.00;102425.84;5039783;28;20124;-75
2021/11/11 08:42:24;;;;;;;47.35;17.25;;;;;;;2.07;100.00;102421.16;5044205;28;20053;-73
2021/11/11 08:44:50;;;;;;;26.90;12.43;;;;;;;2.02;100.00;102420.78;5035525;28;20806;-75
2021/11/11 08:47:19;;;;;;;47.25;16.85;;;;;;;2.09;100.00;102415.72;5034816;28;20058;-75
2021/11/11 08:49:45;;;;;;;38.15;16.90;;;;;;;2.32;100.00;102413.44;5031652;28;20064;-76
2021/11/11 08:52:13;;;;;;;42.33;18.30;;;;;;;2.80;100.00;102409.47;5048219;28;20033;-76
2021/11/11 08:54:38;;;;;;;42.45;18.80;;;;;;;3.13;100.00;102413.97;5034591;28;20022;-77
2021/11/11 08:57:04;;;;;;;42.72;18.98;;;;;;;3.08;99.71;102418.91;5044528;28;20063;-77
2021/11/11 08:59:30;;;;;;;42.80;17.15;;;;;;;2.66;99.91;102422.28;5043341;28;20503;-77
2021/11/11 09:01:55;;;;;;;38.15;16.48;;;;;;;2.60;100.00;102420.28;5042158;28;20037;-78
2021/11/11 09:04:22;;;;;;;37.00;17.00;;;;;;;2.70;100.00;102410.44;5036045;28;20520;-77
2021/11/11 09:06:50;;;;;;;40.83;16.38;;;;;;;2.67;100.00;102402.78;5037495;28;20037;-77
2021/11/11 09:09:17;;;;;;;54.25;20.17;;;;;;;2.76;100.00;102402.84;5039980;28;20033;-77
2021/11/11 09:11:44;;;;;;;42.33;18.50;;;;;;;2.99;100.00;102402.13;5044204;28;20076;-77
2021/11/11 09:14:10;;;;;;;41.25;19.17;;;;;;;3.18;100.00;102410.84;5042927;28;20159;-77
2021/11/11 09:16:35;;;;;;;35.78;17.60;;;;;;;3.26;100.00;102410.88;5031406;28;20120;-77
2021/11/11 09:19:03;;;;;;;37.45;18.83;;;;;;;3.21;99.96;102407.88;5043665;28;20020;-78
2021/11/11 09:21:29;;;;;;;31.05;16.00;;;;;;;3.28;100.00;102408.91;5048657;28;20059;-77
2021/11/11 09:23:55;;;;;;;33.20;15.70;;;;;;;3.28;99.74;102401.78;5042496;28;20032;-77
2021/11/11 09:26:21;;;;;;;19.55;11.30;;;;;;;3.47;98.93;102392.75;5048795;28;20056;-77
2021/11/11 09:28:47;;;;;;;33.20;18.15;;;;;;;3.62;98.71;102391.13;5045122;28;20057;-78
2021/11/11 09:31:15;;;;;;;35.08;19.45;;;;;;;4.00;98.84;102393.34;5034094;28;20040;-77
2021/11/11 09:33:42;;;;;;;31.70;17.30;;;;;;;4.06;97.41;102387.38;5031754;28;20052;-79
2021/11/11 09:36:08;;;;;;;33.47;18.05;;;;;;;4.16;96.78;102394.19;5050897;28;20479;-77
2021/11/11 09:38:34;;;;;;;28.00;16.33;;;;;;;3.93;96.71;102396.63;5053370;28;20032;-78
2021/11/11 09:41:00;;;;;;;29.05;16.73;;;;;;;4.05;97.83;102406.94;5044632;28;20082;-78
2021/11/11 09:43:26;;;;;;;30.80;16.90;;;;;;;4.19;97.26;102408.94;5046573;28;20040;-77
2021/11/11 09:45:52;;;;;;;32.78;17.17;;;;;;;4.55;96.67;102410.25;5045801;28;20029;-78
2021/11/11 09:48:18;;;;;;;33.25;18.05;;;;;;;4.88;96.08;102412.03;5040670;28;20027;-77
2021/11/11 09:50:46;;;;;;;36.55;17.92;;;;;;;5.00;93.73;102403.50;5046350;28;20039;-77
2021/11/11 09:53:15;;;;;;;33.15;18.13;;;;;;;5.18;93.32;102410.44;5050070;28;20086;-78
2021/11/11 09:58:41;;;;;;;29.58;17.40;;;;;;;5.61;91.27;102396.63;5044139;28;20043;-77
2021/11/11 10:01:14;;;;;;;30.15;16.73;;;;;;;5.78;90.95;102399.19;5041935;28;20057;-77
2021/11/11 10:03:42;;;;;;;29.80;16.85;;;;;;;5.72;91.04;102396.19;5039798;28;20078;-76
2021/11/11 10:06:10;;;;;;;36.53;18.08;;;;;;;5.55;91.97;102391.16;5032203;28;20057;-76
2021/11/11 10:08:42;;;;;;;29.65;17.40;;;;;;;5.61;92.06;102388.66;5042322;28;20032;-76
2021/11/11 10:11:12;;;;;;;32.67;18.02;;;;;;;5.51;92.47;102385.38;5038293;28;20029;-76
2021/11/11 10:13:38;;;;;;;33.97;18.05;;;;;;;5.49;93.72;102382.06;5030606;28;20044;-76
2021/11/11 10:16:15;;;;;;;29.27;17.75;;;;;;;5.57;93.34;102384.69;5042144;28;20024;-76
2021/11/11 10:18:55;;;;;;;34.00;17.67;;;;;;;5.46;94.39;102377.91;5031318;28;20483;-76
2021/11/11 10:21:47;;;;;;;32.65;18.95;;;;;;;5.61;94.26;102385.97;5039744;28;20434;-76
2021/11/11 10:24:24;;;;;;;34.92;18.73;;;;;;;5.76;93.96;102386.06;5029928;28;20124;-76
2021/11/11 10:28:01;;;;;;;37.92;19.23;;;;;;;5.80;94.15;102379.38;5025815;28;20545;-76
2021/11/11 10:30:08;;;;;;;33.42;18.90;;;;;;;5.98;93.54;102381.78;5027125;28;20036;-76
2021/11/11 10:32:42;;;;;;;31.95;17.73;;;;;;;6.01;93.33;102376.09;5025698;28;20021;-76
2021/11/11 10:35:12;;;;;;;34.53;18.45;;;;;;;5.98;92.83;102381.78;5026721;28;20037;-75
2021/11/11 10:37:41;;;;;;;35.13;18.33;;;;;;;6.10;92.98;102376.84;5026325;28;20025;-75
2021/11/11 10:40:15;;;;;;;30.45;16.75;;;;;;;6.15;92.74;102367.34;5039116;28;20438;-75
2021/11/11 10:42:43;;;;;;;30.55;16.88;;;;;;;6.20;92.04;102370.28;5030218;28;20048;-76
2021/11/11 10:45:12;;;;;;;32.42;17.77;;;;;;;6.24;92.21;102376.91;5031980;28;20034;-75
2021/11/11 10:47:42;;;;;;;33.33;17.38;;;;;;;6.27;91.91;102370.38;5030709;28;20025;-76
2021/11/11 10:50:11;;;;;;;37.78;19.02;;;;;;;6.30;92.51;102364.72;5037856;28;20029;-76
2021/11/11 10:52:40;;;;;;;29.13;17.92;;;;;;;6.16;92.90;102373.50;5039689;28;20098;-75
2021/11/11 10:55:29;;;;;;;30.17;18.25;;;;;;;6.14;92.98;102365.69;5035542;28;20083;-76
2021/11/11 10:58:12;;;;;;;35.88;18.42;;;;;;;6.21;93.95;102366.63;5034982;28;20123;-75
2021/11/11 11:00:37;;;;;;;31.70;18.13;;;;;;;6.36;93.32;102359.50;5033657;28;20492;-76
2021/11/11 11:03:17;;;;;;;37.25;20.30;;;;;;;6.32;92.72;102358.22;5043752;28;20069;-75
2021/11/11 11:05:54;;;;;;;36.20;18.65;;;;;;;6.30;92.95;102354.91;5034175;28;20056;-75
2021/11/11 11:08:27;;;;;;;35.42;19.05;;;;;;;6.28;93.09;102350.75;5042315;28;20456;-76
2021/11/11 11:11:00;;;;;;;36.08;18.80;;;;;;;6.22;93.70;102349.63;5045505;28;20223;-75
2021/11/11 11:13:32;;;;;;;36.17;18.92;;;;;;;6.21;94.61;102363.97;5037138;28;20036;-75
2021/11/11 11:16:07;;;;;;;34.75;18.50;;;;;;;6.30;93.85;102354.91;5033325;28;20051;-75
2021/11/11 11:18:42;;;;;;;33.38;19.70;;;;;;;6.36;94.32;102359.50;5031619;28;20087;-75
2021/11/11 11:21:09;;;;;;;34.42;20.05;;;;;;;6.38;94.28;102345.19;5045412;28;20112;-75
2021/11/11 11:23:50;;;;;;;36.78;19.65;;;;;;;6.57;93.62;102349.97;5031436;28;20026;-75
2021/11/11 11:26:15;;;;;;;34.88;19.48;;;;;;;6.53;93.92;102338.03;5033427;28;20078;-75
2021/11/11 11:28:49;;;;;;;35.83;19.55;;;;;;;6.53;94.27;102338.03;5030087;28;20080;-75
2021/11/11 11:31:41;;;;;;;37.03;19.23;;;;;;;6.56;94.06;102333.16;5034222;28;20490;-75
2021/11/11 11:34:09;;;;;;;36.15;19.05;;;;;;;6.65;93.77;102334.75;5045712;28;20174;-75
2021/11/11 11:36:46;;;;;;;37.38;18.55;;;;;;;6.71;93.53;102330.50;5031970;28;20380;-75
2021/11/11 11:39:19;;;;;;;36.00;19.92;;;;;;;6.71;93.55;102335.84;5033111;28;20028;-75
2021/11/11 11:41:44;;;;;;;33.33;19.17;;;;;;;6.70;93.22;102330.69;5030397;28;20116;-75
2021/11/11 11:44:27;;;;;;;35.08;17.85;;;;;;;6.77;92.77;102337.75;5040737;28;20471;-75